sensor_id;sensor_type;location;lat;lon;timestamp;P1;durP1;ratioP1;P2;durP2;ratioP2
6537;SDS011;3302;52.508;13.454;2024-02-21T00:00:21;12.63;;;4.90;;
6537;SDS011;3302;52.508;13.454;2024-02-21T00:02:47;15.83;;;5.00;;
6537;SDS011;3302;52.508;13.454;2024-02-21T00:05:12;14.97;;;5.33;;
6537;SDS011;3302;52.508;13.454;2024-02-21T00:07:38;13.43;;;4.93;;
6537;SDS011;3302;52.508;13.454;2024-02-21T00:10:04;10.80;;;4.60;;
6537;SDS011;3302;52.508;13.454;2024-02-21T00:12:30;12.10;;;4.70;;
6537;SDS011;3302;52.508;13.454;2024-02-21T00:14:56;14.00;;;4.83;;
6537;SDS011;3302;52.508;13.454;2024-02-21T00:17:22;12.13;;;4.50;;
6537;SDS011;3302;52.508;13.454;2024-02-21T00:19:47;15.27;;;5.17;;
6537;SDS011;3302;52.508;13.454;2024-02-21T00:22:13;17.30;;;5.03;;
6537;SDS011;3302;52.508;13.454;2024-02-21T00:24:39;12.70;;;4.50;;
6537;SDS011;3302;52.508;13.454;2024-02-21T00:27:05;10.80;;;4.70;;
6537;SDS011;3302;52.508;13.454;2024-02-21T00:29:31;10.60;;;4.80;;
6537;SDS011;3302;52.508;13.454;2024-02-21T00:31:56;11.03;;;4.90;;
6537;SDS011;3302;52.508;13.454;2024-02-21T00:34:22;9.53;;;4.27;;
6537;SDS011;3302;52.508;13.454;2024-02-21T00:36:48;12.87;;;4.60;;
6537;SDS011;3302;52.508;13.454;2024-02-21T00:39:15;11.00;;;4.80;;
6537;SDS011;3302;52.508;13.454;2024-02-21T00:41:41;13.90;;;4.70;;
6537;SDS011;3302;52.508;13.454;2024-02-21T00:44:07;11.97;;;4.63;;
6537;SDS011;3302;52.508;13.454;2024-02-21T00:46:32;9.73;;;4.30;;
6537;SDS011;3302;52.508;13.454;2024-02-21T00:48:58;12.37;;;4.50;;
6537;SDS011;3302;52.508;13.454;2024-02-21T00:51:24;16.87;;;4.97;;
6537;SDS011;3302;52.508;13.454;2024-02-21T00:53:50;11.77;;;4.10;;
6537;SDS011;3302;52.508;13.454;2024-02-21T00:56:16;12.40;;;4.27;;
6537;SDS011;3302;52.508;13.454;2024-02-21T00:58:41;13.13;;;3.90;;
6537;SDS011;3302;52.508;13.454;2024-02-21T01:01:07;11.20;;;4.20;;
6537;SDS011;3302;52.508;13.454;2024-02-21T01:03:33;10.47;;;3.97;;
6537;SDS011;3302;52.508;13.454;2024-02-21T01:05:59;10.50;;;3.70;;
6537;SDS011;3302;52.508;13.454;2024-02-21T01:08:24;11.37;;;3.90;;
6537;SDS011;3302;52.508;13.454;2024-02-21T01:10:50;8.87;;;3.80;;
6537;SDS011;3302;52.508;13.454;2024-02-21T01:13:16;12.23;;;4.13;;
6537;SDS011;3302;52.508;13.454;2024-02-21T01:15:42;17.90;;;4.33;;
6537;SDS011;3302;52.508;13.454;2024-02-21T01:18:07;12.10;;;4.60;;
6537;SDS011;3302;52.508;13.454;2024-02-21T01:20:33;12.00;;;5.03;;
6537;SDS011;3302;52.508;13.454;2024-02-21T01:22:59;10.53;;;4.57;;
6537;SDS011;3302;52.508;13.454;2024-02-21T01:25:25;15.83;;;5.00;;
6537;SDS011;3302;52.508;13.454;2024-02-21T01:27:50;10.00;;;4.50;;
6537;SDS011;3302;52.508;13.454;2024-02-21T01:30:17;7.67;;;3.47;;
6537;SDS011;3302;52.508;13.454;2024-02-21T01:32:42;13.70;;;4.70;;
6537;SDS011;3302;52.508;13.454;2024-02-21T01:35:09;12.83;;;4.30;;
6537;SDS011;3302;52.508;13.454;2024-02-21T01:37:34;10.77;;;3.57;;
6537;SDS011;3302;52.508;13.454;2024-02-21T01:40:00;11.23;;;3.73;;
6537;SDS011;3302;52.508;13.454;2024-02-21T01:42:27;10.50;;;3.40;;
6537;SDS011;3302;52.508;13.454;2024-02-21T01:44:53;9.70;;;4.00;;
6537;SDS011;3302;52.508;13.454;2024-02-21T01:47:19;10.13;;;4.20;;
6537;SDS011;3302;52.508;13.454;2024-02-21T01:49:45;9.87;;;3.77;;
6537;SDS011;3302;52.508;13.454;2024-02-21T01:52:11;11.40;;;3.83;;
6537;SDS011;3302;52.508;13.454;2024-02-21T01:54:39;9.87;;;3.63;;
6537;SDS011;3302;52.508;13.454;2024-02-21T01:57:05;11.97;;;4.83;;
6537;SDS011;3302;52.508;13.454;2024-02-21T01:59:31;10.50;;;3.73;;
6537;SDS011;3302;52.508;13.454;2024-02-21T02:01:57;12.47;;;4.20;;
6537;SDS011;3302;52.508;13.454;2024-02-21T02:04:24;10.90;;;3.90;;
6537;SDS011;3302;52.508;13.454;2024-02-21T02:06:50;8.53;;;3.00;;
6537;SDS011;3302;52.508;13.454;2024-02-21T02:09:16;10.90;;;4.17;;
6537;SDS011;3302;52.508;13.454;2024-02-21T02:11:43;9.03;;;3.60;;
6537;SDS011;3302;52.508;13.454;2024-02-21T02:14:09;14.23;;;3.90;;
6537;SDS011;3302;52.508;13.454;2024-02-21T02:16:34;11.97;;;3.90;;
6537;SDS011;3302;52.508;13.454;2024-02-21T02:19:00;13.33;;;4.80;;
6537;SDS011;3302;52.508;13.454;2024-02-21T02:23:57;8.80;;;4.10;;
6537;SDS011;3302;52.508;13.454;2024-02-21T02:26:24;8.70;;;3.40;;
6537;SDS011;3302;52.508;13.454;2024-02-21T02:28:50;9.37;;;3.93;;
6537;SDS011;3302;52.508;13.454;2024-02-21T02:31:16;8.33;;;4.10;;
6537;SDS011;3302;52.508;13.454;2024-02-21T02:33:44;10.40;;;3.60;;
6537;SDS011;3302;52.508;13.454;2024-02-21T02:36:10;9.70;;;4.20;;
6537;SDS011;3302;52.508;13.454;2024-02-21T02:38:36;12.03;;;3.87;;
6537;SDS011;3302;52.508;13.454;2024-02-21T02:41:02;11.90;;;4.03;;
6537;SDS011;3302;52.508;13.454;2024-02-21T02:43:28;11.73;;;3.67;;
6537;SDS011;3302;52.508;13.454;2024-02-21T02:45:54;8.70;;;3.70;;
6537;SDS011;3302;52.508;13.454;2024-02-21T02:48:20;8.93;;;3.80;;
6537;SDS011;3302;52.508;13.454;2024-02-21T02:50:46;9.17;;;3.83;;
6537;SDS011;3302;52.508;13.454;2024-02-21T02:53:12;11.90;;;4.00;;
6537;SDS011;3302;52.508;13.454;2024-02-21T02:55:38;9.60;;;3.63;;
6537;SDS011;3302;52.508;13.454;2024-02-21T02:58:04;8.27;;;3.90;;
6537;SDS011;3302;52.508;13.454;2024-02-21T03:00:29;11.10;;;4.10;;
6537;SDS011;3302;52.508;13.454;2024-02-21T03:02:55;10.53;;;4.10;;
6537;SDS011;3302;52.508;13.454;2024-02-21T03:05:21;10.90;;;3.90;;
6537;SDS011;3302;52.508;13.454;2024-02-21T03:07:47;14.97;;;5.30;;
6537;SDS011;3302;52.508;13.454;2024-02-21T03:10:16;7.90;;;3.73;;
6537;SDS011;3302;52.508;13.454;2024-02-21T03:12:42;14.57;;;4.80;;
6537;SDS011;3302;52.508;13.454;2024-02-21T03:15:08;12.73;;;4.60;;
6537;SDS011;3302;52.508;13.454;2024-02-21T03:17:34;11.53;;;4.90;;
6537;SDS011;3302;52.508;13.454;2024-02-21T03:20:01;9.57;;;4.43;;
6537;SDS011;3302;52.508;13.454;2024-02-21T03:22:30;12.77;;;4.27;;
6537;SDS011;3302;52.508;13.454;2024-02-21T03:24:58;11.30;;;4.83;;
6537;SDS011;3302;52.508;13.454;2024-02-21T03:27:24;13.20;;;4.73;;
6537;SDS011;3302;52.508;13.454;2024-02-21T03:29:51;10.67;;;4.70;;
6537;SDS011;3302;52.508;13.454;2024-02-21T03:32:17;10.57;;;4.10;;
6537;SDS011;3302;52.508;13.454;2024-02-21T03:34:43;10.63;;;5.37;;
6537;SDS011;3302;52.508;13.454;2024-02-21T03:37:09;10.70;;;4.30;;
6537;SDS011;3302;52.508;13.454;2024-02-21T03:39:35;12.00;;;4.83;;
6537;SDS011;3302;52.508;13.454;2024-02-21T03:42:02;11.67;;;4.40;;
6537;SDS011;3302;52.508;13.454;2024-02-21T03:44:30;13.63;;;4.20;;
6537;SDS011;3302;52.508;13.454;2024-02-21T03:46:57;12.47;;;4.77;;
6537;SDS011;3302;52.508;13.454;2024-02-21T03:49:24;11.80;;;5.73;;
6537;SDS011;3302;52.508;13.454;2024-02-21T03:51:49;13.37;;;4.97;;
6537;SDS011;3302;52.508;13.454;2024-02-21T03:54:15;15.60;;;4.73;;
6537;SDS011;3302;52.508;13.454;2024-02-21T03:56:41;9.93;;;4.47;;
6537;SDS011;3302;52.508;13.454;2024-02-21T03:59:07;10.47;;;4.80;;
6537;SDS011;3302;52.508;13.454;2024-02-21T04:01:36;12.80;;;5.30;;
6537;SDS011;3302;52.508;13.454;2024-02-21T04:04:02;12.17;;;4.80;;
6537;SDS011;3302;52.508;13.454;2024-02-21T04:06:28;12.70;;;5.07;;
6537;SDS011;3302;52.508;13.454;2024-02-21T04:08:54;10.17;;;4.57;;
6537;SDS011;3302;52.508;13.454;2024-02-21T04:11:20;17.50;;;6.23;;
6537;SDS011;3302;52.508;13.454;2024-02-21T04:13:46;13.37;;;4.93;;
6537;SDS011;3302;52.508;13.454;2024-02-21T04:16:14;14.50;;;4.73;;
6537;SDS011;3302;52.508;13.454;2024-02-21T04:18:41;12.77;;;4.97;;
6537;SDS011;3302;52.508;13.454;2024-02-21T04:21:07;11.27;;;5.07;;
6537;SDS011;3302;52.508;13.454;2024-02-21T04:23:33;13.30;;;5.83;;
6537;SDS011;3302;52.508;13.454;2024-02-21T04:25:59;15.30;;;5.10;;
6537;SDS011;3302;52.508;13.454;2024-02-21T04:28:25;12.30;;;4.97;;
6537;SDS011;3302;52.508;13.454;2024-02-21T04:30:50;13.00;;;5.13;;
6537;SDS011;3302;52.508;13.454;2024-02-21T04:33:16;13.17;;;4.77;;
6537;SDS011;3302;52.508;13.454;2024-02-21T04:35:42;17.37;;;5.30;;
6537;SDS011;3302;52.508;13.454;2024-02-21T04:38:08;14.27;;;4.93;;
6537;SDS011;3302;52.508;13.454;2024-02-21T04:40:33;16.83;;;5.20;;
6537;SDS011;3302;52.508;13.454;2024-02-21T04:42:59;10.27;;;5.23;;
6537;SDS011;3302;52.508;13.454;2024-02-21T04:45:25;13.97;;;5.77;;
6537;SDS011;3302;52.508;13.454;2024-02-21T04:47:51;10.50;;;5.20;;
6537;SDS011;3302;52.508;13.454;2024-02-21T04:50:17;12.67;;;5.67;;
6537;SDS011;3302;52.508;13.454;2024-02-21T04:52:43;11.93;;;5.77;;
6537;SDS011;3302;52.508;13.454;2024-02-21T04:55:09;11.00;;;4.90;;
6537;SDS011;3302;52.508;13.454;2024-02-21T04:57:35;12.63;;;5.00;;
6537;SDS011;3302;52.508;13.454;2024-02-21T05:00:00;9.97;;;5.30;;
6537;SDS011;3302;52.508;13.454;2024-02-21T05:02:26;10.63;;;5.03;;
6537;SDS011;3302;52.508;13.454;2024-02-21T05:04:52;13.30;;;5.73;;
6537;SDS011;3302;52.508;13.454;2024-02-21T05:07:18;10.77;;;4.93;;
6537;SDS011;3302;52.508;13.454;2024-02-21T05:09:45;14.27;;;5.03;;
6537;SDS011;3302;52.508;13.454;2024-02-21T05:12:11;14.13;;;5.47;;
6537;SDS011;3302;52.508;13.454;2024-02-21T05:14:37;11.13;;;5.30;;
6537;SDS011;3302;52.508;13.454;2024-02-21T05:17:03;14.03;;;5.40;;
6537;SDS011;3302;52.508;13.454;2024-02-21T05:19:29;12.33;;;5.50;;
6537;SDS011;3302;52.508;13.454;2024-02-21T05:21:55;14.37;;;5.47;;
6537;SDS011;3302;52.508;13.454;2024-02-21T05:24:21;13.17;;;5.37;;
6537;SDS011;3302;52.508;13.454;2024-02-21T05:26:47;15.70;;;6.17;;
6537;SDS011;3302;52.508;13.454;2024-02-21T05:29:13;12.97;;;5.40;;
6537;SDS011;3302;52.508;13.454;2024-02-21T05:34:34;12.43;;;5.47;;
6537;SDS011;3302;52.508;13.454;2024-02-21T05:37:00;10.27;;;5.00;;
6537;SDS011;3302;52.508;13.454;2024-02-21T05:39:26;14.87;;;5.37;;
6537;SDS011;3302;52.508;13.454;2024-02-21T05:41:51;11.47;;;5.30;;
6537;SDS011;3302;52.508;13.454;2024-02-21T05:44:18;13.93;;;5.00;;
6537;SDS011;3302;52.508;13.454;2024-02-21T05:46:44;11.93;;;5.67;;
6537;SDS011;3302;52.508;13.454;2024-02-21T05:49:10;12.07;;;5.53;;
6537;SDS011;3302;52.508;13.454;2024-02-21T05:51:36;10.83;;;5.33;;
6537;SDS011;3302;52.508;13.454;2024-02-21T05:54:02;14.10;;;5.60;;
6537;SDS011;3302;52.508;13.454;2024-02-21T05:56:28;12.23;;;6.20;;
6537;SDS011;3302;52.508;13.454;2024-02-21T05:58:53;15.30;;;5.60;;
6537;SDS011;3302;52.508;13.454;2024-02-21T06:01:19;11.50;;;5.53;;
6537;SDS011;3302;52.508;13.454;2024-02-21T06:03:46;19.17;;;6.30;;
6537;SDS011;3302;52.508;13.454;2024-02-21T06:06:12;11.20;;;5.53;;
6537;SDS011;3302;52.508;13.454;2024-02-21T06:08:42;11.87;;;5.30;;
6537;SDS011;3302;52.508;13.454;2024-02-21T06:11:08;10.63;;;5.23;;
6537;SDS011;3302;52.508;13.454;2024-02-21T06:13:37;14.73;;;5.37;;
6537;SDS011;3302;52.508;13.454;2024-02-21T06:16:04;13.97;;;6.53;;
6537;SDS011;3302;52.508;13.454;2024-02-21T06:18:31;12.37;;;5.13;;
6537;SDS011;3302;52.508;13.454;2024-02-21T06:20:57;15.03;;;6.03;;
6537;SDS011;3302;52.508;13.454;2024-02-21T06:23:23;10.53;;;5.37;;
6537;SDS011;3302;52.508;13.454;2024-02-21T06:25:48;12.20;;;6.03;;
6537;SDS011;3302;52.508;13.454;2024-02-21T06:28:14;10.47;;;5.97;;
6537;SDS011;3302;52.508;13.454;2024-02-21T06:30:40;12.07;;;5.67;;
6537;SDS011;3302;52.508;13.454;2024-02-21T06:33:06;11.23;;;5.40;;
6537;SDS011;3302;52.508;13.454;2024-02-21T06:35:33;10.17;;;5.10;;
6537;SDS011;3302;52.508;13.454;2024-02-21T06:38:00;13.10;;;5.87;;
6537;SDS011;3302;52.508;13.454;2024-02-21T06:40:26;10.63;;;5.40;;
6537;SDS011;3302;52.508;13.454;2024-02-21T06:42:51;13.27;;;5.37;;
6537;SDS011;3302;52.508;13.454;2024-02-21T06:45:17;12.50;;;5.77;;
6537;SDS011;3302;52.508;13.454;2024-02-21T06:47:43;11.63;;;5.47;;
6537;SDS011;3302;52.508;13.454;2024-02-21T06:50:09;9.33;;;5.10;;
6537;SDS011;3302;52.508;13.454;2024-02-21T06:52:38;11.07;;;5.60;;
6537;SDS011;3302;52.508;13.454;2024-02-21T06:55:04;11.90;;;6.13;;
6537;SDS011;3302;52.508;13.454;2024-02-21T06:57:30;12.13;;;6.00;;
6537;SDS011;3302;52.508;13.454;2024-02-21T06:59:56;14.17;;;6.57;;
6537;SDS011;3302;52.508;13.454;2024-02-21T07:02:21;15.37;;;8.13;;
6537;SDS011;3302;52.508;13.454;2024-02-21T07:04:47;14.30;;;6.83;;
6537;SDS011;3302;52.508;13.454;2024-02-21T07:07:13;11.40;;;5.93;;
6537;SDS011;3302;52.508;13.454;2024-02-21T07:09:39;12.30;;;6.13;;
6537;SDS011;3302;52.508;13.454;2024-02-21T07:12:05;11.43;;;5.97;;
6537;SDS011;3302;52.508;13.454;2024-02-21T07:14:35;10.13;;;5.87;;
6537;SDS011;3302;52.508;13.454;2024-02-21T07:17:01;13.03;;;5.70;;
6537;SDS011;3302;52.508;13.454;2024-02-21T07:19:27;13.20;;;7.10;;
6537;SDS011;3302;52.508;13.454;2024-02-21T07:21:52;12.73;;;6.47;;
6537;SDS011;3302;52.508;13.454;2024-02-21T07:24:18;12.27;;;6.10;;
6537;SDS011;3302;52.508;13.454;2024-02-21T07:26:44;9.13;;;5.97;;
6537;SDS011;3302;52.508;13.454;2024-02-21T07:29:10;12.17;;;6.23;;
6537;SDS011;3302;52.508;13.454;2024-02-21T07:31:42;10.63;;;6.07;;
6537;SDS011;3302;52.508;13.454;2024-02-21T07:34:08;14.53;;;6.37;;
6537;SDS011;3302;52.508;13.454;2024-02-21T07:36:35;10.77;;;6.13;;
6537;SDS011;3302;52.508;13.454;2024-02-21T07:39:02;14.53;;;6.10;;
6537;SDS011;3302;52.508;13.454;2024-02-21T07:41:29;13.07;;;6.77;;
6537;SDS011;3302;52.508;13.454;2024-02-21T07:43:56;13.67;;;5.90;;
6537;SDS011;3302;52.508;13.454;2024-02-21T07:46:22;10.13;;;6.13;;
6537;SDS011;3302;52.508;13.454;2024-02-21T07:48:48;11.03;;;5.33;;
6537;SDS011;3302;52.508;13.454;2024-02-21T07:51:14;10.47;;;5.87;;
6537;SDS011;3302;52.508;13.454;2024-02-21T07:53:44;12.23;;;6.13;;
6537;SDS011;3302;52.508;13.454;2024-02-21T07:56:14;10.27;;;5.90;;
6537;SDS011;3302;52.508;13.454;2024-02-21T07:58:40;12.57;;;5.57;;
6537;SDS011;3302;52.508;13.454;2024-02-21T08:01:07;11.00;;;5.40;;
6537;SDS011;3302;52.508;13.454;2024-02-21T08:03:33;13.50;;;5.37;;
6537;SDS011;3302;52.508;13.454;2024-02-21T08:06:00;10.43;;;5.93;;
6537;SDS011;3302;52.508;13.454;2024-02-21T08:08:26;11.57;;;5.97;;
6537;SDS011;3302;52.508;13.454;2024-02-21T08:10:52;9.80;;;5.07;;
6537;SDS011;3302;52.508;13.454;2024-02-21T08:13:18;10.10;;;5.30;;
6537;SDS011;3302;52.508;13.454;2024-02-21T08:15:43;13.87;;;5.80;;
6537;SDS011;3302;52.508;13.454;2024-02-21T08:18:09;12.47;;;5.90;;
6537;SDS011;3302;52.508;13.454;2024-02-21T08:20:35;12.10;;;5.57;;
6537;SDS011;3302;52.508;13.454;2024-02-21T08:23:01;10.47;;;5.57;;
6537;SDS011;3302;52.508;13.454;2024-02-21T08:25:27;11.97;;;5.70;;
6537;SDS011;3302;52.508;13.454;2024-02-21T08:27:55;8.03;;;5.23;;
6537;SDS011;3302;52.508;13.454;2024-02-21T08:30:23;12.87;;;6.03;;
6537;SDS011;3302;52.508;13.454;2024-02-21T08:32:49;10.37;;;5.80;;
6537;SDS011;3302;52.508;13.454;2024-02-21T08:35:15;10.13;;;5.37;;
6537;SDS011;3302;52.508;13.454;2024-02-21T08:37:43;13.43;;;6.10;;
6537;SDS011;3302;52.508;13.454;2024-02-21T08:40:12;13.23;;;5.70;;
6537;SDS011;3302;52.508;13.454;2024-02-21T08:42:41;10.30;;;5.27;;
6537;SDS011;3302;52.508;13.454;2024-02-21T08:45:07;9.30;;;5.90;;
6537;SDS011;3302;52.508;13.454;2024-02-21T08:47:33;12.60;;;6.23;;
6537;SDS011;3302;52.508;13.454;2024-02-21T08:50:01;12.07;;;5.77;;
6537;SDS011;3302;52.508;13.454;2024-02-21T08:52:27;12.23;;;6.47;;
6537;SDS011;3302;52.508;13.454;2024-02-21T08:54:53;12.37;;;6.27;;
6537;SDS011;3302;52.508;13.454;2024-02-21T08:57:19;12.27;;;5.93;;
6537;SDS011;3302;52.508;13.454;2024-02-21T08:59:45;13.70;;;6.20;;
6537;SDS011;3302;52.508;13.454;2024-02-21T09:02:12;12.07;;;6.43;;
6537;SDS011;3302;52.508;13.454;2024-02-21T09:04:39;11.10;;;5.70;;
6537;SDS011;3302;52.508;13.454;2024-02-21T09:07:04;10.57;;;6.90;;
6537;SDS011;3302;52.508;13.454;2024-02-21T09:09:30;9.90;;;6.37;;
6537;SDS011;3302;52.508;13.454;2024-02-21T09:11:58;13.03;;;6.43;;
6537;SDS011;3302;52.508;13.454;2024-02-21T09:14:34;20.70;;;8.10;;
6537;SDS011;3302;52.508;13.454;2024-02-21T09:17:03;11.47;;;6.90;;
6537;SDS011;3302;52.508;13.454;2024-02-21T09:19:29;10.70;;;6.17;;
6537;SDS011;3302;52.508;13.454;2024-02-21T09:21:55;12.47;;;7.10;;
6537;SDS011;3302;52.508;13.454;2024-02-21T09:24:20;14.00;;;6.33;;
6537;SDS011;3302;52.508;13.454;2024-02-21T09:26:46;12.23;;;6.37;;
6537;SDS011;3302;52.508;13.454;2024-02-21T09:29:12;12.20;;;6.27;;
6537;SDS011;3302;52.508;13.454;2024-02-21T09:31:38;11.37;;;6.73;;
6537;SDS011;3302;52.508;13.454;2024-02-21T09:34:04;12.93;;;6.97;;
6537;SDS011;3302;52.508;13.454;2024-02-21T09:36:30;14.43;;;7.47;;
6537;SDS011;3302;52.508;13.454;2024-02-21T09:38:56;10.07;;;7.07;;
6537;SDS011;3302;52.508;13.454;2024-02-21T09:41:26;10.60;;;7.53;;
6537;SDS011;3302;52.508;13.454;2024-02-21T09:43:54;10.00;;;7.00;;
6537;SDS011;3302;52.508;13.454;2024-02-21T09:49:16;17.23;;;7.03;;
6537;SDS011;3302;52.508;13.454;2024-02-21T09:52:06;13.33;;;7.00;;
6537;SDS011;3302;52.508;13.454;2024-02-21T09:54:33;11.70;;;7.03;;
6537;SDS011;3302;52.508;13.454;2024-02-21T09:56:59;11.30;;;7.10;;
6537;SDS011;3302;52.508;13.454;2024-02-21T09:59:30;9.77;;;6.70;;
6537;SDS011;3302;52.508;13.454;2024-02-21T10:01:57;11.60;;;6.90;;
6537;SDS011;3302;52.508;13.454;2024-02-21T10:04:25;17.33;;;7.80;;
6537;SDS011;3302;52.508;13.454;2024-02-21T10:06:51;13.60;;;7.20;;
6537;SDS011;3302;52.508;13.454;2024-02-21T10:11:48;11.43;;;6.70;;
6537;SDS011;3302;52.508;13.454;2024-02-21T10:14:15;13.57;;;7.10;;
6537;SDS011;3302;52.508;13.454;2024-02-21T10:16:41;13.07;;;6.80;;
6537;SDS011;3302;52.508;13.454;2024-02-21T10:19:15;10.20;;;6.30;;
6537;SDS011;3302;52.508;13.454;2024-02-21T10:21:42;12.00;;;8.00;;
6537;SDS011;3302;52.508;13.454;2024-02-21T10:24:08;12.23;;;6.10;;
6537;SDS011;3302;52.508;13.454;2024-02-21T10:26:35;13.23;;;7.13;;
6537;SDS011;3302;52.508;13.454;2024-02-21T10:29:02;10.90;;;6.63;;
6537;SDS011;3302;52.508;13.454;2024-02-21T10:31:28;10.93;;;6.93;;
6537;SDS011;3302;52.508;13.454;2024-02-21T10:33:57;12.80;;;6.53;;
6537;SDS011;3302;52.508;13.454;2024-02-21T10:36:24;15.87;;;8.07;;
6537;SDS011;3302;52.508;13.454;2024-02-21T10:38:51;9.47;;;6.10;;
6537;SDS011;3302;52.508;13.454;2024-02-21T10:41:19;13.17;;;6.53;;
6537;SDS011;3302;52.508;13.454;2024-02-21T10:43:50;17.50;;;8.73;;
6537;SDS011;3302;52.508;13.454;2024-02-21T10:46:21;10.77;;;6.07;;
6537;SDS011;3302;52.508;13.454;2024-02-21T10:48:48;12.53;;;6.37;;
6537;SDS011;3302;52.508;13.454;2024-02-21T10:51:21;8.80;;;6.50;;
6537;SDS011;3302;52.508;13.454;2024-02-21T10:56:52;9.10;;;6.07;;
6537;SDS011;3302;52.508;13.454;2024-02-21T10:59:20;8.97;;;6.00;;
6537;SDS011;3302;52.508;13.454;2024-02-21T11:01:47;10.33;;;5.87;;
6537;SDS011;3302;52.508;13.454;2024-02-21T11:04:13;10.57;;;5.60;;
6537;SDS011;3302;52.508;13.454;2024-02-21T11:06:40;9.63;;;6.30;;
6537;SDS011;3302;52.508;13.454;2024-02-21T11:09:07;10.43;;;5.57;;
6537;SDS011;3302;52.508;13.454;2024-02-21T11:11:34;10.63;;;5.93;;
6537;SDS011;3302;52.508;13.454;2024-02-21T11:14:08;9.80;;;6.10;;
6537;SDS011;3302;52.508;13.454;2024-02-21T11:16:39;12.10;;;6.27;;
6537;SDS011;3302;52.508;13.454;2024-02-21T11:19:10;8.53;;;6.50;;
6537;SDS011;3302;52.508;13.454;2024-02-21T11:21:46;8.57;;;5.60;;
6537;SDS011;3302;52.508;13.454;2024-02-21T11:24:13;10.13;;;6.47;;
6537;SDS011;3302;52.508;13.454;2024-02-21T11:26:39;14.03;;;6.07;;
6537;SDS011;3302;52.508;13.454;2024-02-21T11:29:08;11.47;;;5.53;;
6537;SDS011;3302;52.508;13.454;2024-02-21T11:31:43;7.43;;;5.50;;
6537;SDS011;3302;52.508;13.454;2024-02-21T11:34:11;7.50;;;5.20;;
6537;SDS011;3302;52.508;13.454;2024-02-21T11:36:46;10.50;;;5.73;;
6537;SDS011;3302;52.508;13.454;2024-02-21T11:39:20;8.03;;;5.27;;
6537;SDS011;3302;52.508;13.454;2024-02-21T11:42:01;10.40;;;5.00;;
6537;SDS011;3302;52.508;13.454;2024-02-21T11:44:29;9.93;;;5.10;;
6537;SDS011;3302;52.508;13.454;2024-02-21T11:46:55;6.67;;;5.00;;
6537;SDS011;3302;52.508;13.454;2024-02-21T11:49:21;7.47;;;4.87;;
6537;SDS011;3302;52.508;13.454;2024-02-21T11:51:47;9.63;;;5.13;;
6537;SDS011;3302;52.508;13.454;2024-02-21T11:54:13;5.77;;;4.47;;
6537;SDS011;3302;52.508;13.454;2024-02-21T11:56:41;8.93;;;4.87;;
6537;SDS011;3302;52.508;13.454;2024-02-21T11:59:08;7.60;;;4.67;;
6537;SDS011;3302;52.508;13.454;2024-02-21T12:01:34;5.73;;;4.90;;
6537;SDS011;3302;52.508;13.454;2024-02-21T12:04:00;7.63;;;4.73;;
6537;SDS011;3302;52.508;13.454;2024-02-21T12:06:26;5.63;;;4.37;;
6537;SDS011;3302;52.508;13.454;2024-02-21T12:08:51;6.13;;;4.10;;
6537;SDS011;3302;52.508;13.454;2024-02-21T12:11:22;7.63;;;4.20;;
6537;SDS011;3302;52.508;13.454;2024-02-21T12:14:03;7.27;;;4.17;;
6537;SDS011;3302;52.508;13.454;2024-02-21T12:16:31;4.63;;;3.50;;
6537;SDS011;3302;52.508;13.454;2024-02-21T12:18:58;5.00;;;4.00;;
6537;SDS011;3302;52.508;13.454;2024-02-21T12:21:26;7.13;;;4.20;;
6537;SDS011;3302;52.508;13.454;2024-02-21T12:23:55;5.33;;;3.90;;
6537;SDS011;3302;52.508;13.454;2024-02-21T12:26:22;6.80;;;3.80;;
6537;SDS011;3302;52.508;13.454;2024-02-21T12:28:48;6.90;;;4.07;;
6537;SDS011;3302;52.508;13.454;2024-02-21T12:31:13;5.47;;;3.80;;
6537;SDS011;3302;52.508;13.454;2024-02-21T12:33:41;8.33;;;4.87;;
6537;SDS011;3302;52.508;13.454;2024-02-21T12:36:08;7.47;;;3.50;;
6537;SDS011;3302;52.508;13.454;2024-02-21T12:38:34;7.23;;;3.70;;
6537;SDS011;3302;52.508;13.454;2024-02-21T12:41:01;5.63;;;3.83;;
6537;SDS011;3302;52.508;13.454;2024-02-21T12:43:27;5.53;;;3.83;;
6537;SDS011;3302;52.508;13.454;2024-02-21T12:45:52;4.50;;;3.60;;
6537;SDS011;3302;52.508;13.454;2024-02-21T12:48:18;5.27;;;3.10;;
6537;SDS011;3302;52.508;13.454;2024-02-21T12:50:48;4.40;;;3.50;;
6537;SDS011;3302;52.508;13.454;2024-02-21T12:53:16;4.67;;;3.33;;
6537;SDS011;3302;52.508;13.454;2024-02-21T12:55:44;5.13;;;3.13;;
6537;SDS011;3302;52.508;13.454;2024-02-21T12:58:11;5.20;;;3.30;;
6537;SDS011;3302;52.508;13.454;2024-02-21T13:00:39;6.23;;;3.30;;
6537;SDS011;3302;52.508;13.454;2024-02-21T13:03:05;6.13;;;3.07;;
6537;SDS011;3302;52.508;13.454;2024-02-21T13:05:31;4.53;;;3.17;;
6537;SDS011;3302;52.508;13.454;2024-02-21T13:07:57;7.67;;;3.70;;
6537;SDS011;3302;52.508;13.454;2024-02-21T13:10:23;6.27;;;3.67;;
6537;SDS011;3302;52.508;13.454;2024-02-21T13:12:49;5.50;;;3.40;;
6537;SDS011;3302;52.508;13.454;2024-02-21T13:15:15;5.03;;;3.40;;
6537;SDS011;3302;52.508;13.454;2024-02-21T13:17:45;5.37;;;4.67;;
6537;SDS011;3302;52.508;13.454;2024-02-21T13:20:11;6.50;;;3.57;;
6537;SDS011;3302;52.508;13.454;2024-02-21T13:22:37;4.10;;;3.10;;
6537;SDS011;3302;52.508;13.454;2024-02-21T13:25:04;6.93;;;3.00;;
6537;SDS011;3302;52.508;13.454;2024-02-21T13:27:32;6.47;;;3.20;;
6537;SDS011;3302;52.508;13.454;2024-02-21T13:29:59;6.13;;;3.30;;
6537;SDS011;3302;52.508;13.454;2024-02-21T13:32:29;6.50;;;2.90;;
6537;SDS011;3302;52.508;13.454;2024-02-21T13:34:55;7.50;;;3.90;;
6537;SDS011;3302;52.508;13.454;2024-02-21T13:37:21;6.77;;;3.73;;
6537;SDS011;3302;52.508;13.454;2024-02-21T13:39:47;8.47;;;3.70;;
6537;SDS011;3302;52.508;13.454;2024-02-21T13:42:13;9.07;;;4.60;;
6537;SDS011;3302;52.508;13.454;2024-02-21T13:44:39;7.63;;;3.60;;
6537;SDS011;3302;52.508;13.454;2024-02-21T13:47:04;7.67;;;4.13;;
6537;SDS011;3302;52.508;13.454;2024-02-21T13:49:33;6.77;;;4.10;;
6537;SDS011;3302;52.508;13.454;2024-02-21T13:51:59;6.93;;;4.10;;
6537;SDS011;3302;52.508;13.454;2024-02-21T13:54:25;8.77;;;4.30;;
6537;SDS011;3302;52.508;13.454;2024-02-21T13:56:51;6.23;;;4.07;;
6537;SDS011;3302;52.508;13.454;2024-02-21T13:59:17;9.40;;;4.50;;
6537;SDS011;3302;52.508;13.454;2024-02-21T14:01:43;8.03;;;4.43;;
6537;SDS011;3302;52.508;13.454;2024-02-21T14:04:09;8.50;;;4.23;;
6537;SDS011;3302;52.508;13.454;2024-02-21T14:06:34;8.23;;;4.30;;
6537;SDS011;3302;52.508;13.454;2024-02-21T14:09:00;8.20;;;4.30;;
6537;SDS011;3302;52.508;13.454;2024-02-21T14:11:26;5.63;;;3.73;;
6537;SDS011;3302;52.508;13.454;2024-02-21T14:13:53;8.07;;;4.47;;
6537;SDS011;3302;52.508;13.454;2024-02-21T14:16:22;7.87;;;4.30;;
6537;SDS011;3302;52.508;13.454;2024-02-21T14:18:48;5.40;;;3.50;;
6537;SDS011;3302;52.508;13.454;2024-02-21T14:21:14;5.23;;;3.20;;
6537;SDS011;3302;52.508;13.454;2024-02-21T14:23:40;7.67;;;3.77;;
6537;SDS011;3302;52.508;13.454;2024-02-21T14:26:06;5.20;;;3.40;;
6537;SDS011;3302;52.508;13.454;2024-02-21T14:28:32;8.23;;;3.47;;
6537;SDS011;3302;52.508;13.454;2024-02-21T14:30:59;8.50;;;5.27;;
6537;SDS011;3302;52.508;13.454;2024-02-21T14:33:28;6.93;;;3.60;;
6537;SDS011;3302;52.508;13.454;2024-02-21T14:35:55;6.53;;;3.50;;
6537;SDS011;3302;52.508;13.454;2024-02-21T14:38:20;7.87;;;3.97;;
6537;SDS011;3302;52.508;13.454;2024-02-21T14:40:46;5.53;;;3.40;;
6537;SDS011;3302;52.508;13.454;2024-02-21T14:43:13;7.70;;;3.57;;
6537;SDS011;3302;52.508;13.454;2024-02-21T14:45:38;6.03;;;2.83;;
6537;SDS011;3302;52.508;13.454;2024-02-21T14:48:05;7.57;;;3.03;;
6537;SDS011;3302;52.508;13.454;2024-02-21T14:50:32;8.63;;;3.77;;
6537;SDS011;3302;52.508;13.454;2024-02-21T14:52:58;5.83;;;3.73;;
6537;SDS011;3302;52.508;13.454;2024-02-21T14:55:24;6.87;;;3.60;;
6537;SDS011;3302;52.508;13.454;2024-02-21T14:57:50;7.07;;;3.90;;
6537;SDS011;3302;52.508;13.454;2024-02-21T15:00:16;6.93;;;3.40;;
6537;SDS011;3302;52.508;13.454;2024-02-21T15:02:42;8.23;;;3.57;;